sensor_id;sensor_type;location;lat;lon;timestamp;pressure;altitude;pressure_sealevel;temperature;humidity
46129;BME280;31860;45.186;5.790;2023-05-23T00:01:13;99036.16;;;21.42;100.00
46129;BME280;31860;45.186;5.790;2023-05-23T00:03:41;99033.53;;;21.40;100.00
46129;BME280;31860;45.186;5.790;2023-05-23T00:06:06;99035.41;;;21.38;100.00
46129;BME280;31860;45.186;5.790;2023-05-23T00:08:32;99031.03;;;21.37;100.00
46129;BME280;31860;45.186;5.790;2023-05-23T00:10:57;99039.09;;;21.36;100.00
46129;BME280;31860;45.186;5.790;2023-05-23T00:13:22;99034.69;;;21.35;100.00
46129;BME280;31860;45.186;5.790;2023-05-23T00:15:48;99030.25;;;21.35;100.00
46129;BME280;31860;45.186;5.790;2023-05-23T00:18:13;99024.06;;;21.35;100.00
46129;BME280;31860;45.186;5.790;2023-05-23T00:20:40;99024.94;;;21.35;100.00
46129;BME280;31860;45.186;5.790;2023-05-23T00:23:10;99027.66;;;21.34;100.00
46129;BME280;31860;45.186;5.790;2023-05-23T00:25:42;99026.78;;;21.33;100.00
46129;BME280;31860;45.186;5.790;2023-05-23T00:28:12;99025.94;;;21.33;100.00
46129;BME280;31860;45.186;5.790;2023-05-23T00:30:38;99019.78;;;21.32;100.00
46129;BME280;31860;45.186;5.790;2023-05-23T00:33:03;99018.03;;;21.31;100.00
46129;BME280;31860;45.186;5.790;2023-05-23T00:35:29;99011.84;;;21.31;100.00
46129;BME280;31860;45.186;5.790;2023-05-23T00:37:54;99004.81;;;21.30;100.00
46129;BME280;31860;45.186;5.790;2023-05-23T00:40:20;99006.59;;;21.29;100.00
46129;BME280;31860;45.186;5.790;2023-05-23T00:42:46;99010.28;;;21.27;100.00
46129;BME280;31860;45.186;5.790;2023-05-23T00:45:12;99008.53;;;21.26;100.00
46129;BME280;31860;45.186;5.790;2023-05-23T00:47:39;99004.19;;;21.25;100.00
46129;BME280;31860;45.186;5.790;2023-05-23T00:50:07;99010.41;;;21.24;100.00
46129;BME280;31860;45.186;5.790;2023-05-23T00:52:33;99007.81;;;21.22;100.00
46129;BME280;31860;45.186;5.790;2023-05-23T00:54:58;99011.34;;;21.23;100.00
46129;BME280;31860;45.186;5.790;2023-05-23T00:57:23;99009.63;;;21.22;100.00
46129;BME280;31860;45.186;5.790;2023-05-23T00:59:49;99008.75;;;21.21;100.00
46129;BME280;31860;45.186;5.790;2023-05-23T01:02:15;99012.44;;;21.19;100.00
46129;BME280;31860;45.186;5.790;2023-05-23T01:04:40;99010.75;;;21.16;100.00
46129;BME280;31860;45.186;5.790;2023-05-23T01:07:06;99012.69;;;21.13;100.00
46129;BME280;31860;45.186;5.790;2023-05-23T01:09:31;99012.78;;;21.11;100.00
46129;BME280;31860;45.186;5.790;2023-05-23T01:17:14;99027.19;;;21.06;100.00
46129;BME280;31860;45.186;5.790;2023-05-23T01:25:43;99026.63;;;20.98;100.00
46129;BME280;31860;45.186;5.790;2023-05-23T01:28:14;99029.44;;;20.95;100.00
46129;BME280;31860;45.186;5.790;2023-05-23T01:30:43;99026.78;;;20.95;100.00
46129;BME280;31860;45.186;5.790;2023-05-23T01:33:09;99029.47;;;20.93;100.00
46129;BME280;31860;45.186;5.790;2023-05-23T01:35:36;99026.00;;;20.93;100.00
46129;BME280;31860;45.186;5.790;2023-05-23T01:38:02;99031.31;;;20.93;100.00
46129;BME280;31860;45.186;5.790;2023-05-23T01:40:28;99034.00;;;20.91;100.00
46129;BME280;31860;45.186;5.790;2023-05-23T01:42:54;99032.38;;;20.89;100.00
46129;BME280;31860;45.186;5.790;2023-05-23T01:45:25;99033.28;;;20.88;100.00
46129;BME280;31860;45.186;5.790;2023-05-23T01:47:51;99027.97;;;20.88;100.00
46129;BME280;31860;45.186;5.790;2023-05-23T01:50:18;99036.88;;;20.87;100.00
46129;BME280;31860;45.186;5.790;2023-05-23T01:52:47;99020.16;;;20.85;100.00
46129;BME280;31860;45.186;5.790;2023-05-23T01:55:15;99026.38;;;20.84;100.00
46129;BME280;31860;45.186;5.790;2023-05-23T01:57:43;99023.78;;;20.82;100.00
46129;BME280;31860;45.186;5.790;2023-05-23T02:00:12;99022.16;;;20.80;100.00
46129;BME280;31860;45.186;5.790;2023-05-23T02:02:39;99019.63;;;20.76;100.00
46129;BME280;31860;45.186;5.790;2023-05-23T02:05:05;99011.78;;;20.73;100.00
46129;BME280;31860;45.186;5.790;2023-05-23T02:07:30;99013.56;;;20.73;100.00
46129;BME280;31860;45.186;5.790;2023-05-23T02:09:56;99015.50;;;20.69;100.00
46129;BME280;31860;45.186;5.790;2023-05-23T02:12:21;99008.47;;;20.68;100.00
46129;BME280;31860;45.186;5.790;2023-05-23T02:14:47;99008.53;;;20.67;100.00
46129;BME280;31860;45.186;5.790;2023-05-23T02:17:13;99008.53;;;20.67;100.00
46129;BME280;31860;45.186;5.790;2023-05-23T02:19:41;99017.38;;;20.67;100.00
46129;BME280;31860;45.186;5.790;2023-05-23T02:22:06;99011.25;;;20.65;100.00
46129;BME280;31860;45.186;5.790;2023-05-23T02:24:31;99012.19;;;20.64;100.00
46129;BME280;31860;45.186;5.790;2023-05-23T02:26:57;99014.91;;;20.63;100.00
46129;BME280;31860;45.186;5.790;2023-05-23T02:29:22;99018.50;;;20.62;100.00
46129;BME280;31860;45.186;5.790;2023-05-23T02:31:47;99015.13;;;20.58;100.00
46129;BME280;31860;45.186;5.790;2023-05-23T02:34:13;99016.91;;;20.58;100.00
46129;BME280;31860;45.186;5.790;2023-05-23T02:36:38;99021.28;;;20.59;100.00
46129;BME280;31860;45.186;5.790;2023-05-23T02:39:05;99018.69;;;20.57;100.00
46129;BME280;31860;45.186;5.790;2023-05-23T02:41:31;99017.84;;;20.57;100.00
46129;BME280;31860;45.186;5.790;2023-05-23T02:43:57;99020.59;;;20.54;100.00
46129;BME280;31860;45.186;5.790;2023-05-23T02:46:22;99027.66;;;20.55;100.00
46129;BME280;31860;45.186;5.790;2023-05-23T02:48:48;99031.28;;;20.52;100.00
46129;BME280;31860;45.186;5.790;2023-05-23T02:51:13;99027.78;;;20.52;100.00
46129;BME280;31860;45.186;5.790;2023-05-23T02:53:39;99026.06;;;20.51;100.00
46129;BME280;31860;45.186;5.790;2023-05-23T02:56:04;99033.06;;;20.52;100.00
46129;BME280;31860;45.186;5.790;2023-05-23T02:58:32;99031.44;;;20.49;100.00
46129;BME280;31860;45.186;5.790;2023-05-23T03:01:00;99025.19;;;20.50;100.00
46129;BME280;31860;45.186;5.790;2023-05-23T03:03:26;99032.28;;;20.50;100.00
46129;BME280;31860;45.186;5.790;2023-05-23T03:05:53;99021.75;;;20.48;100.00
46129;BME280;31860;45.186;5.790;2023-05-23T03:08:18;99031.47;;;20.48;100.00
46129;BME280;31860;45.186;5.790;2023-05-23T03:10:43;99030.66;;;20.47;100.00
46129;BME280;31860;45.186;5.790;2023-05-23T03:13:09;99022.69;;;20.47;100.00
46129;BME280;31860;45.186;5.790;2023-05-23T03:15:34;99027.13;;;20.47;100.00
46129;BME280;31860;45.186;5.790;2023-05-23T03:18:00;99024.47;;;20.47;100.00
46129;BME280;31860;45.186;5.790;2023-05-23T03:20:25;99029.78;;;20.47;100.00
46129;BME280;31860;45.186;5.790;2023-05-23T03:22:51;99030.69;;;20.46;100.00
46129;BME280;31860;45.186;5.790;2023-05-23T03:25:16;99028.91;;;20.46;100.00
46129;BME280;31860;45.186;5.790;2023-05-23T03:27:41;99026.38;;;20.43;100.00
46129;BME280;31860;45.186;5.790;2023-05-23T03:30:07;99029.09;;;20.42;100.00
46129;BME280;31860;45.186;5.790;2023-05-23T03:32:33;99037.00;;;20.43;100.00
46129;BME280;31860;45.186;5.790;2023-05-23T03:34:58;99034.47;;;20.40;100.00
46129;BME280;31860;45.186;5.790;2023-05-23T03:37:24;99036.28;;;20.40;100.00
46129;BME280;31860;45.186;5.790;2023-05-23T03:39:49;99039.66;;;20.43;100.00
46129;BME280;31860;45.186;5.790;2023-05-23T03:42:14;99033.41;;;20.44;100.00
46129;BME280;31860;45.186;5.790;2023-05-23T03:44:40;99036.06;;;20.44;100.00
46129;BME280;31860;45.186;5.790;2023-05-23T03:47:05;99029.88;;;20.44;100.00
46129;BME280;31860;45.186;5.790;2023-05-23T03:49:30;99026.47;;;20.42;100.00
46129;BME280;31860;45.186;5.790;2023-05-23T03:51:56;99023.81;;;20.42;100.00
46129;BME280;31860;45.186;5.790;2023-05-23T03:54:21;99033.56;;;20.41;100.00
46129;BME280;31860;45.186;5.790;2023-05-23T03:56:47;99029.03;;;20.43;100.00
46129;BME280;31860;45.186;5.790;2023-05-23T03:59:12;99032.59;;;20.42;100.00
46129;BME280;31860;45.186;5.790;2023-05-23T04:01:37;99033.34;;;20.46;100.00
46129;BME280;31860;45.186;5.790;2023-05-23T04:04:03;99039.44;;;20.48;100.00
46129;BME280;31860;45.186;5.790;2023-05-23T04:06:29;99027.97;;;20.47;100.00
46129;BME280;31860;45.186;5.790;2023-05-23T04:08:55;99031.44;;;20.49;100.00
46129;BME280;31860;45.186;5.790;2023-05-23T04:11:21;99030.56;;;20.49;100.00
46129;BME280;31860;45.186;5.790;2023-05-23T04:13:47;99032.34;;;20.48;100.00
46129;BME280;31860;45.186;5.790;2023-05-23T04:16:12;99027.97;;;20.47;100.00
46129;BME280;31860;45.186;5.790;2023-05-23T04:18:37;99030.56;;;20.49;100.00
46129;BME280;31860;45.186;5.790;2023-05-23T04:21:03;99037.59;;;20.50;100.00
46129;BME280;31860;45.186;5.790;2023-05-23T04:23:28;99035.88;;;20.49;100.00
46129;BME280;31860;45.186;5.790;2023-05-23T04:25:54;99037.59;;;20.50;100.00
46129;BME280;31860;45.186;5.790;2023-05-23T04:28:19;99037.72;;;20.47;100.00
46129;BME280;31860;45.186;5.790;2023-05-23T04:30:44;99035.88;;;20.49;100.00
46129;BME280;31860;45.186;5.790;2023-05-23T04:33:10;99034.13;;;20.48;100.00
46129;BME280;31860;45.186;5.790;2023-05-23T04:35:36;99031.44;;;20.49;100.00
46129;BME280;31860;45.186;5.790;2023-05-23T04:38:04;99034.09;;;20.49;100.00
46129;BME280;31860;45.186;5.790;2023-05-23T04:40:30;99045.56;;;20.50;100.00
46129;BME280;31860;45.186;5.790;2023-05-23T04:42:55;99045.56;;;20.50;100.00
46129;BME280;31860;45.186;5.790;2023-05-23T04:45:21;99045.47;;;20.51;100.00
46129;BME280;31860;45.186;5.790;2023-05-23T04:47:46;99051.66;;;20.52;100.00
46129;BME280;31860;45.186;5.790;2023-05-23T04:50:12;99050.78;;;20.51;100.00
46129;BME280;31860;45.186;5.790;2023-05-23T04:52:41;99046.50;;;20.49;100.00
46129;BME280;31860;45.186;5.790;2023-05-23T04:55:07;99050.84;;;20.50;100.00
46129;BME280;31860;45.186;5.790;2023-05-23T04:57:33;99057.03;;;20.50;100.00
46129;BME280;31860;45.186;5.790;2023-05-23T04:59:59;99053.44;;;20.51;100.00
46129;BME280;31860;45.186;5.790;2023-05-23T05:02:25;99050.78;;;20.51;100.00
46129;BME280;31860;45.186;5.790;2023-05-23T05:04:51;99048.94;;;20.53;100.00
46129;BME280;31860;45.186;5.790;2023-05-23T05:07:17;99050.75;;;20.53;100.00
46129;BME280;31860;45.186;5.790;2023-05-23T05:09:42;99053.41;;;20.53;100.00
46129;BME280;31860;45.186;5.790;2023-05-23T05:12:07;99043.63;;;20.53;100.00
46129;BME280;31860;45.186;5.790;2023-05-23T05:14:33;99045.44;;;20.53;100.00
46129;BME280;31860;45.186;5.790;2023-05-23T05:16:58;99041.91;;;20.52;100.00
46129;BME280;31860;45.186;5.790;2023-05-23T05:19:24;99047.22;;;20.52;100.00
46129;BME280;31860;45.186;5.790;2023-05-23T05:21:50;99048.03;;;20.54;100.00
46129;BME280;31860;45.186;5.790;2023-05-23T05:24:15;99047.06;;;20.55;100.00
46129;BME280;31860;45.186;5.790;2023-05-23T05:26:41;99053.25;;;20.56;100.00
46129;BME280;31860;45.186;5.790;2023-05-23T05:29:06;99046.16;;;20.56;100.00
46129;BME280;31860;45.186;5.790;2023-05-23T05:31:32;99047.03;;;20.57;100.00
46129;BME280;31860;45.186;5.790;2023-05-23T05:33:58;99045.28;;;20.56;100.00
46129;BME280;31860;45.186;5.790;2023-05-23T05:36:23;99050.59;;;20.56;100.00
46129;BME280;31860;45.186;5.790;2023-05-23T05:38:48;99042.56;;;20.57;100.00
46129;BME280;31860;45.186;5.790;2023-05-23T05:41:14;99050.53;;;20.57;100.00
46129;BME280;31860;45.186;5.790;2023-05-23T05:43:39;99046.97;;;20.58;100.00
46129;BME280;31860;45.186;5.790;2023-05-23T05:46:05;99048.56;;;20.62;100.00
46129;BME280;31860;45.186;5.790;2023-05-23T05:48:30;99044.97;;;20.63;100.00
46129;BME280;31860;45.186;5.790;2023-05-23T05:50:56;99039.59;;;20.65;100.00
46129;BME280;31860;45.186;5.790;2023-05-23T05:53:21;99040.47;;;20.65;100.00
46129;BME280;31860;45.186;5.790;2023-05-23T05:55:46;99045.69;;;20.67;100.00
46129;BME280;31860;45.186;5.790;2023-05-23T05:58:12;99038.53;;;20.69;100.00
46129;BME280;31860;45.186;5.790;2023-05-23T06:00:37;99049.94;;;20.71;100.00
46129;BME280;31860;45.186;5.790;2023-05-23T06:03:09;99046.31;;;20.73;100.00
46129;BME280;31860;45.186;5.790;2023-05-23T06:05:35;99048.91;;;20.75;100.00
46129;BME280;31860;45.186;5.790;2023-05-23T06:08:04;99049.63;;;20.78;100.00
46129;BME280;31860;45.186;5.790;2023-05-23T06:10:30;99046.06;;;20.80;100.00
46129;BME280;31860;45.186;5.790;2023-05-23T06:12:57;99053.78;;;20.84;100.00
46129;BME280;31860;45.186;5.790;2023-05-23T06:15:22;99051.94;;;20.86;100.00
46129;BME280;31860;45.186;5.790;2023-05-23T06:17:48;99053.59;;;20.89;100.00
46129;BME280;31860;45.186;5.790;2023-05-23T06:20:13;99050.94;;;20.89;100.00
46129;BME280;31860;45.186;5.790;2023-05-23T06:22:39;99056.13;;;20.92;100.00
46129;BME280;31860;45.186;5.790;2023-05-23T06:25:05;99056.03;;;20.93;100.00
46129;BME280;31860;45.186;5.790;2023-05-23T06:27:31;99052.41;;;20.96;100.00
46129;BME280;31860;45.186;5.790;2023-05-23T06:29:56;99048.75;;;20.98;100.00
46129;BME280;31860;45.186;5.790;2023-05-23T06:32:21;99048.69;;;21.00;100.00
46129;BME280;31860;45.186;5.790;2023-05-23T06:34:47;99045.06;;;21.02;100.00
46129;BME280;31860;45.186;5.790;2023-05-23T06:37:12;99051.22;;;21.03;100.00
46129;BME280;31860;45.186;5.790;2023-05-23T06:39:38;99048.56;;;21.03;100.00
46129;BME280;31860;45.186;5.790;2023-05-23T06:42:03;99060.94;;;21.04;100.00
46129;BME280;31860;45.186;5.790;2023-05-23T06:44:29;99050.31;;;21.04;100.00
46129;BME280;31860;45.186;5.790;2023-05-23T06:46:54;99051.09;;;21.06;100.00
46129;BME280;31860;45.186;5.790;2023-05-23T06:49:22;99056.41;;;21.06;100.00
46129;BME280;31860;45.186;5.790;2023-05-23T06:51:48;99051.09;;;21.06;100.00
46129;BME280;31860;45.186;5.790;2023-05-23T06:54:13;99051.09;;;21.06;100.00
46129;BME280;31860;45.186;5.790;2023-05-23T06:56:38;99060.78;;;21.07;100.00
46129;BME280;31860;45.186;5.790;2023-05-23T06:59:04;99059.91;;;21.06;100.00
46129;BME280;31860;45.186;5.790;2023-05-23T07:01:29;99057.22;;;21.08;100.00
46129;BME280;31860;45.186;5.790;2023-05-23T07:03:55;99056.28;;;21.09;100.00
46129;BME280;31860;45.186;5.790;2023-05-23T07:06:20;99051.75;;;21.11;100.00
46129;BME280;31860;45.186;5.790;2023-05-23T07:08:46;99051.59;;;21.14;100.00
46129;BME280;31860;45.186;5.790;2023-05-23T07:11:11;99045.38;;;21.15;100.00
46129;BME280;31860;45.186;5.790;2023-05-23T07:13:36;99054.13;;;21.17;100.00
46129;BME280;31860;45.186;5.790;2023-05-23T07:16:02;99050.50;;;21.19;100.00
46129;BME280;31860;45.186;5.790;2023-05-23T07:18:27;99045.81;;;21.24;100.00
46129;BME280;31860;45.186;5.790;2023-05-23T07:20:53;99042.19;;;21.27;100.00
46129;BME280;31860;45.186;5.790;2023-05-23T07:23:18;99038.41;;;21.31;100.00
46129;BME280;31860;45.186;5.790;2023-05-23T07:25:44;99035.56;;;21.35;100.00
46129;BME280;31860;45.186;5.790;2023-05-23T07:28:11;99037.16;;;21.39;100.00
46129;BME280;31860;45.186;5.790;2023-05-23T07:30:37;99034.25;;;21.44;100.00
46129;BME280;31860;45.186;5.790;2023-05-23T07:33:02;99041.16;;;21.48;100.00
46129;BME280;31860;45.186;5.790;2023-05-23T07:35:27;99040.09;;;21.52;100.00
46129;BME280;31860;45.186;5.790;2023-05-23T07:37:53;99040.75;;;21.57;100.00
46129;BME280;31860;45.186;5.790;2023-05-23T07:40:20;99037.88;;;21.61;100.00
46129;BME280;31860;45.186;5.790;2023-05-23T07:42:46;99035.00;;;21.66;100.00
46129;BME280;31860;45.186;5.790;2023-05-23T07:45:12;99028.59;;;21.70;100.00
46129;BME280;31860;45.186;5.790;2023-05-23T07:47:37;99028.38;;;21.75;100.00
46129;BME280;31860;45.186;5.790;2023-05-23T07:50:03;99019.31;;;21.79;100.00
46129;BME280;31860;45.186;5.790;2023-05-23T07:52:29;99023.59;;;21.83;100.00
46129;BME280;31860;45.186;5.790;2023-05-23T07:54:56;99018.91;;;21.88;100.00
46129;BME280;31860;45.186;5.790;2023-05-23T07:57:21;99018.69;;;21.92;100.00
46129;BME280;31860;45.186;5.790;2023-05-23T07:59:48;99019.31;;;21.97;100.00
46129;BME280;31860;45.186;5.790;2023-05-23T08:02:14;99011.13;;;22.02;100.00
46129;BME280;31860;45.186;5.790;2023-05-23T08:04:39;99010.88;;;22.06;100.00
46129;BME280;31860;45.186;5.790;2023-05-23T08:07:05;99015.13;;;22.10;100.00
46129;BME280;31860;45.186;5.790;2023-05-23T08:09:32;99014.03;;;22.14;100.00
46129;BME280;31860;45.186;5.790;2023-05-23T08:11:57;99011.16;;;22.19;100.00
46129;BME280;31860;45.186;5.790;2023-05-23T08:14:22;99010.06;;;22.23;100.00
46129;BME280;31860;45.186;5.790;2023-05-23T08:16:48;99010.69;;;22.28;100.00
46129;BME280;31860;45.186;5.790;2023-05-23T08:19:13;99004.38;;;22.30;100.00
46129;BME280;31860;45.186;5.790;2023-05-23T08:21:38;99006.78;;;22.35;100.00
46129;BME280;31860;45.186;5.790;2023-05-23T08:24:04;99005.59;;;22.40;100.00
46129;BME280;31860;45.186;5.790;2023-05-23T08:26:29;98992.16;;;22.43;100.00
46129;BME280;31860;45.186;5.790;2023-05-23T08:29:01;98996.28;;;22.49;100.00
46129;BME280;31860;45.186;5.790;2023-05-23T08:31:28;98995.22;;;22.53;100.00
46129;BME280;31860;45.186;5.790;2023-05-23T08:33:54;98999.44;;;22.57;100.00
46129;BME280;31860;45.186;5.790;2023-05-23T08:36:19;98993.00;;;22.61;100.00
46129;BME280;31860;45.186;5.790;2023-05-23T08:38:45;98991.00;;;22.66;100.00
46129;BME280;31860;45.186;5.790;2023-05-23T08:41:19;98990.75;;;22.71;100.00
46129;BME280;31860;45.186;5.790;2023-05-23T08:43:44;98991.44;;;22.74;100.00
46129;BME280;31860;45.186;5.790;2023-05-23T08:46:11;98988.72;;;22.76;100.00
46129;BME280;31860;45.186;5.790;2023-05-23T08:48:37;98992.91;;;22.80;100.00
46129;BME280;31860;45.186;5.790;2023-05-23T08:51:03;98989.09;;;22.85;100.00
46129;BME280;31860;45.186;5.790;2023-05-23T08:53:30;98993.38;;;22.88;100.00
46129;BME280;31860;45.186;5.790;2023-05-23T08:55:57;98979.81;;;22.92;100.00
46129;BME280;31860;45.186;5.790;2023-05-23T08:58:28;98978.78;;;22.95;100.00
46129;BME280;31860;45.186;5.790;2023-05-23T09:00:54;98981.22;;;22.99;100.00
46129;BME280;31860;45.186;5.790;2023-05-23T09:03:19;98982.78;;;23.03;100.00
46129;BME280;31860;45.186;5.790;2023-05-23T09:05:46;98989.66;;;23.07;100.00
46129;BME280;31860;45.186;5.790;2023-05-23T09:08:11;98979.69;;;23.11;100.00
46129;BME280;31860;45.186;5.790;2023-05-23T09:10:37;98986.69;;;23.13;100.00
46129;BME280;31860;45.186;5.790;2023-05-23T09:13:04;98977.63;;;23.16;100.00
46129;BME280;31860;45.186;5.790;2023-05-23T09:15:29;98972.06;;;23.20;100.00
46129;BME280;31860;45.186;5.790;2023-05-23T09:17:59;98978.09;;;23.24;100.00
46129;BME280;31860;45.186;5.790;2023-05-23T09:20:28;98981.44;;;23.27;100.00
46129;BME280;31860;45.186;5.790;2023-05-23T09:22:54;98975.03;;;23.31;100.00
46129;BME280;31860;45.186;5.790;2023-05-23T09:25:20;98976.69;;;23.34;100.00
46129;BME280;31860;45.186;5.790;2023-05-23T09:27:45;98978.25;;;23.38;100.00
46129;BME280;31860;45.186;5.790;2023-05-23T09:30:12;98974.44;;;23.42;100.00
46129;BME280;31860;45.186;5.790;2023-05-23T09:32:38;98970.75;;;23.44;100.00
46129;BME280;31860;45.186;5.790;2023-05-23T09:35:07;98969.72;;;23.47;100.00
46129;BME280;31860;45.186;5.790;2023-05-23T09:37:42;98965.16;;;23.49;100.00
46129;BME280;31860;45.186;5.790;2023-05-23T09:40:11;98956.97;;;23.52;100.00
46129;BME280;31860;45.186;5.790;2023-05-23T09:42:44;98958.63;;;23.55;100.00
46129;BME280;31860;45.186;5.790;2023-05-23T09:45:13;98956.72;;;23.57;100.00
46129;BME280;31860;45.186;5.790;2023-05-23T09:47:48;98959.31;;;23.58;100.00
46129;BME280;31860;45.186;5.790;2023-05-23T09:50:15;98952.09;;;23.60;100.00
46129;BME280;31860;45.186;5.790;2023-05-23T09:52:40;98960.88;;;23.62;100.00
46129;BME280;31860;45.186;5.790;2023-05-23T09:55:06;98947.44;;;23.64;100.00
46129;BME280;31860;45.186;5.790;2023-05-23T09:57:37;98945.44;;;23.67;100.00
46129;BME280;31860;45.186;5.790;2023-05-23T10:00:04;98948.00;;;23.69;100.00
46129;BME280;31860;45.186;5.790;2023-05-23T10:05:34;98950.44;;;23.73;100.00
46129;BME280;31860;45.186;5.790;2023-05-23T10:08:02;98951.22;;;23.75;100.00
46129;BME280;31860;45.186;5.790;2023-05-23T10:10:31;98948.44;;;23.77;100.00
46129;BME280;31860;45.186;5.790;2023-05-23T10:13:03;98949.13;;;23.80;100.00
46129;BME280;31860;45.186;5.790;2023-05-23T10:15:34;98933.03;;;23.82;100.00
46129;BME280;31860;45.186;5.790;2023-05-23T10:20:48;98930.09;;;23.86;100.00
46129;BME280;31860;45.186;5.790;2023-05-23T10:23:14;98927.25;;;23.89;100.00
46129;BME280;31860;45.186;5.790;2023-05-23T10:25:41;98929.66;;;23.94;100.00
46129;BME280;31860;45.186;5.790;2023-05-23T10:28:07;98918.88;;;23.95;100.00
46129;BME280;31860;45.186;5.790;2023-05-23T10:30:34;98925.69;;;24.01;100.00
46129;BME280;31860;45.186;5.790;2023-05-23T10:33:00;98922.00;;;24.03;100.00
46129;BME280;31860;45.186;5.790;2023-05-23T10:40:52;98917.00;;;24.13;100.00
46129;BME280;31860;45.186;5.790;2023-05-23T10:43:35;98918.59;;;24.15;97.89
46129;BME280;31860;45.186;5.790;2023-05-23T10:46:07;98907.75;;;24.18;99.57
46129;BME280;31860;45.186;5.790;2023-05-23T10:48:34;98909.41;;;24.21;99.81
46129;BME280;31860;45.186;5.790;2023-05-23T10:51:06;98907.47;;;24.23;100.00
46129;BME280;31860;45.186;5.790;2023-05-23T10:53:34;98909.00;;;24.27;100.00
46129;BME280;31860;45.186;5.790;2023-05-23T10:56:01;98906.16;;;24.30;100.00
46129;BME280;31860;45.186;5.790;2023-05-23T10:58:29;98913.88;;;24.34;100.00
46129;BME280;31860;45.186;5.790;2023-05-23T11:00:59;98902.94;;;24.39;98.36
46129;BME280;31860;45.186;5.790;2023-05-23T11:05:58;98898.16;;;24.44;98.94
46129;BME280;31860;45.186;5.790;2023-05-23T11:08:23;98895.31;;;24.47;98.16
46129;BME280;31860;45.186;5.790;2023-05-23T11:10:53;98888.91;;;24.50;97.68
46129;BME280;31860;45.186;5.790;2023-05-23T11:13:21;98892.34;;;24.52;97.58
46129;BME280;31860;45.186;5.790;2023-05-23T11:15:48;98891.31;;;24.54;97.30
46129;BME280;31860;45.186;5.790;2023-05-23T11:18:22;98878.72;;;24.56;96.76
46129;BME280;31860;45.186;5.790;2023-05-23T11:20:52;98884.84;;;24.58;98.35
46129;BME280;31860;45.186;5.790;2023-05-23T11:23:18;98881.09;;;24.61;98.85
46129;BME280;31860;45.186;5.790;2023-05-23T11:25:51;98884.53;;;24.63;95.34
46129;BME280;31860;45.186;5.790;2023-05-23T11:28:19;98879.94;;;24.65;95.74
46129;BME280;31860;45.186;5.790;2023-05-23T11:30:48;98884.38;;;24.66;96.43
46129;BME280;31860;45.186;5.790;2023-05-23T11:33:15;98876.25;;;24.67;96.68
46129;BME280;31860;45.186;5.790;2023-05-23T11:35:48;98871.66;;;24.69;94.80
46129;BME280;31860;45.186;5.790;2023-05-23T11:38:16;98874.34;;;24.69;95.19
46129;BME280;31860;45.186;5.790;2023-05-23T11:40:44;98871.56;;;24.71;95.09
46129;BME280;31860;45.186;5.790;2023-05-23T11:43:14;98870.66;;;24.72;93.98
46129;BME280;31860;45.186;5.790;2023-05-23T11:45:41;98865.31;;;24.72;94.58
46129;BME280;31860;45.186;5.790;2023-05-23T11:48:07;98867.03;;;24.73;94.72
46129;BME280;31860;45.186;5.790;2023-05-23T11:50:33;98863.41;;;24.74;94.69
46129;BME280;31860;45.186;5.790;2023-05-23T11:52:59;98858.91;;;24.74;94.59
46129;BME280;31860;45.186;5.790;2023-05-23T11:55:24;98864.25;;;24.74;94.46
46129;BME280;31860;45.186;5.790;2023-05-23T11:57:50;98867.69;;;24.76;95.52
46129;BME280;31860;45.186;5.790;2023-05-23T12:00:16;98863.22;;;24.77;95.43
46129;BME280;31860;45.186;5.790;2023-05-23T12:02:44;98854.22;;;24.78;95.27
46129;BME280;31860;45.186;5.790;2023-05-23T12:05:10;98863.09;;;24.78;94.94
46129;BME280;31860;45.186;5.790;2023-05-23T12:07:44;98852.41;;;24.78;93.35
46129;BME280;31860;45.186;5.790;2023-05-23T12:10:12;98843.53;;;24.78;94.98
46129;BME280;31860;45.186;5.790;2023-05-23T12:12:40;98834.56;;;24.79;95.10
46129;BME280;31860;45.186;5.790;2023-05-23T12:15:10;98837.25;;;24.79;94.69
46129;BME280;31860;45.186;5.790;2023-05-23T12:17:43;98835.44;;;24.79;96.10
46129;BME280;31860;45.186;5.790;2023-05-23T12:20:10;98838.13;;;24.79;99.23
46129;BME280;31860;45.186;5.790;2023-05-23T12:22:36;98828.38;;;24.78;97.02
46129;BME280;31860;45.186;5.790;2023-05-23T12:25:01;98835.44;;;24.79;99.11
46129;BME280;31860;45.186;5.790;2023-05-23T12:27:33;98842.38;;;24.82;98.93
46129;BME280;31860;45.186;5.790;2023-05-23T12:30:14;98828.09;;;24.83;98.87
46129;BME280;31860;45.186;5.790;2023-05-23T12:32:41;98820.06;;;24.83;100.00
46129;BME280;31860;45.186;5.790;2023-05-23T12:35:09;98826.25;;;24.83;100.00
46129;BME280;31860;45.186;5.790;2023-05-23T12:37:40;98821.66;;;24.85;100.00
46129;BME280;31860;45.186;5.790;2023-05-23T12:40:14;98822.53;;;24.86;100.00
46129;BME280;31860;45.186;5.790;2023-05-23T12:42:48;98813.56;;;24.87;100.00
46129;BME280;31860;45.186;5.790;2023-05-23T12:45:15;98815.28;;;24.88;100.00
46129;BME280;31860;45.186;5.790;2023-05-23T12:47:40;98809.81;;;24.89;100.00
46129;BME280;31860;45.186;5.790;2023-05-23T12:50:06;98810.69;;;24.90;100.00
46129;BME280;31860;45.186;5.790;2023-05-23T12:52:31;98813.38;;;24.90;100.00
46129;BME280;31860;45.186;5.790;2023-05-23T12:54:57;98816.03;;;24.90;100.00
46129;BME280;31860;45.186;5.790;2023-05-23T12:57:22;98809.72;;;24.91;100.00
46129;BME280;31860;45.186;5.790;2023-05-23T12:59:47;98807.91;;;24.91;100.00
46129;BME280;31860;45.186;5.790;2023-05-23T13:02:13;98801.69;;;24.91;100.00
46129;BME280;31860;45.186;5.790;2023-05-23T13:04:38;98806.09;;;24.92;100.00
46129;BME280;31860;45.186;5.790;2023-05-23T13:07:03;98799.78;;;24.93;100.00
46129;BME280;31860;45.186;5.790;2023-05-23T13:09:29;98797.13;;;24.93;100.00
46129;BME280;31860;45.186;5.790;2023-05-23T13:11:54;98797.13;;;24.93;100.00